Thunder radar more information blitzortung!


Radar de pluja more information rain snow radar


Visita la nostra xarxa de llocs de meteo:

Template documentation
and downloads

And another site



No particular awareness of the weather is required.    There are no Weather-warnings

Pagina Historial Weather Underground text

Diari Resum Agost 9, 2017 Unitats:  Tant    Imperial   Mètric
« Previous Dia
SegĂźent Dia »
Diari Setmana Mensual Anual Personalitzada
  Maxima: Minima: Media:
Temperatura: TemperatureC °F /  -17.8 °C 15.0 °F /  -9.4 °C 21.5 °F /  -5.8 °C
Punt de rosada: DewpointC °F /  -17.8 °C 10.3 °F /  -12.1 °C 13.9 °F /  -10.1 °C
Humitat: Humidity % 46 % 63 %
Wind Speed: WindSpeedKMH mph /  0 km/h - 5.4 mph /  8.7 km/h
RĂ fegues de vent: WindSpeedGustKMH mph /  0 km/h - -
Vent:- - South
Pression baro: PressurehPa in /  0 hPa 1013.8 in /  34327.3 hPa -
Precipitacions: 7.9 in /  200.66 mm    
Historical Graphs
 
 
Dades de taula per Agost 9, 2017
Temps Temperatura Punt de rosada Pression baro Vent Wind Speed RĂ fegues de vent Humitat Rainfall Rate (Hourly)
TemperatureC °F /  -17.8 °C DewpointC °F /  -17.8 °C PressurehPa in /  0 hPa Calm     Humidity % HourlyPrecipMM in /  0 mm
00:00 19.4 °F /  -7 °C 13.6 °F /  -10.2 °C 1013.8 in /  34327.3 hPa Calm     69 % 0.0 in /  0 mm
00:02 21.6 °F /  -5.8 °C 15.2 °F /  -9.3 °C 1014.8 in /  34361.1 hPa Calm     67 % 0.0 in /  0 mm
00:07 21.5 °F /  -5.8 °C 15.1 °F /  -9.4 °C 1014.8 in /  34361.1 hPa Calm     67 % 0.0 in /  0 mm
00:10 19.2 °F /  -7.1 °C 13.6 °F /  -10.2 °C 1013.8 in /  34327.3 hPa Calm   1.6 mph /  2.6 km/h 70 % 0.0 in /  0 mm
00:20 19.2 °F /  -7.1 °C 13.4 °F /  -10.3 °C 1013.8 in /  34327.3 hPa Calm   1.6 mph /  2.6 km/h 69 % 0.0 in /  0 mm
00:30 19.2 °F /  -7.1 °C 13.4 °F /  -10.3 °C 1013.8 in /  34327.3 hPa SW 1.6 mph /  2.6 km/h 1.6 mph /  2.6 km/h 69 % 0.0 in /  0 mm
00:40 19.3 °F /  -7.1 °C 13.7 °F /  -10.2 °C 1013.8 in /  34327.3 hPa Calm   3.2 mph /  5.1 km/h 70 % 0.0 in /  0 mm
00:50 19.2 °F /  -7.1 °C 13.6 °F /  -10.2 °C 1013.8 in /  34327.3 hPa Calm   1.6 mph /  2.6 km/h 70 % 0.0 in /  0 mm
01:00 19.2 °F /  -7.1 °C 13.6 °F /  -10.2 °C 1013.8 in /  34327.3 hPa WSW 1.6 mph /  2.6 km/h 3.2 mph /  5.1 km/h 70 % 0.0 in /  0 mm
01:10 19.4 °F /  -7 °C 13.8 °F /  -10.1 °C 1013.8 in /  34327.3 hPa Calm   3.2 mph /  5.1 km/h 70 % 0.0 in /  0 mm
01:20 19.5 °F /  -6.9 °C 13.2 °F /  -10.4 °C 1014.8 in /  34361.1 hPa North 4.8 mph /  7.7 km/h 6.4 mph /  10.3 km/h 67 % 0.0 in /  0 mm
01:30 19.3 °F /  -7.1 °C 12.3 °F /  -10.9 °C 1014.8 in /  34361.1 hPa NNE 1.6 mph /  2.6 km/h 4.8 mph /  7.7 km/h 64 % 0.0 in /  0 mm
01:40 19.1 °F /  -7.2 °C 11.9 °F /  -11.2 °C 1014.8 in /  34361.1 hPa NNE 1.6 mph /  2.6 km/h 4.8 mph /  7.7 km/h 63 % 0.0 in /  0 mm
01:50 19.0 °F /  -7.2 °C 11.8 °F /  -11.2 °C 1014.8 in /  34361.1 hPa NNE 1.6 mph /  2.6 km/h 3.2 mph /  5.1 km/h 63 % 0.0 in /  0 mm
02:00 18.8 °F /  -7.3 °C 11.8 °F /  -11.2 °C 1014.8 in /  34361.1 hPa NNE 1.6 mph /  2.6 km/h 3.2 mph /  5.1 km/h 64 % 0.0 in /  0 mm
02:10 18.7 °F /  -7.4 °C 11.7 °F /  -11.3 °C 1013.8 in /  34327.3 hPa Calm   1.6 mph /  2.6 km/h 64 % 0.0 in /  0 mm
02:20 18.5 °F /  -7.5 °C 11.6 °F /  -11.3 °C 1014.8 in /  34361.1 hPa Calm     64 % 0.0 in /  0 mm
02:30 18.9 °F /  -7.3 °C 11.9 °F /  -11.2 °C 1014.8 in /  34361.1 hPa Calm   3.2 mph /  5.1 km/h 64 % 0.0 in /  0 mm
02:40 19.0 °F /  -7.2 °C 11.6 °F /  -11.3 °C 1014.8 in /  34361.1 hPa NE 1.6 mph /  2.6 km/h 1.6 mph /  2.6 km/h 62 % 0.0 in /  0 mm
02:50 18.8 °F /  -7.3 °C 11.4 °F /  -11.4 °C 1014.8 in /  34361.1 hPa NE 1.6 mph /  2.6 km/h 3.2 mph /  5.1 km/h 62 % 0.0 in /  0 mm
03:00 19.0 °F /  -7.2 °C 11.3 °F /  -11.5 °C 1014.8 in /  34361.1 hPa NNE 1.6 mph /  2.6 km/h 3.2 mph /  5.1 km/h 61 % 0.0 in /  0 mm
03:10 19.8 °F /  -6.8 °C 11.8 °F /  -11.2 °C 1014.8 in /  34361.1 hPa NNE 1.6 mph /  2.6 km/h 3.2 mph /  5.1 km/h 60 % 0.0 in /  0 mm
03:20 19.8 °F /  -6.8 °C 11.6 °F /  -11.3 °C 1014.8 in /  34361.1 hPa NNE 1.6 mph /  2.6 km/h 3.2 mph /  5.1 km/h 59 % 0.0 in /  0 mm
03:30 20.2 °F /  -6.6 °C 11.4 °F /  -11.4 °C 1014.8 in /  34361.1 hPa NNE 1.6 mph /  2.6 km/h 3.2 mph /  5.1 km/h 57 % 0.0 in /  0 mm
03:40 20.6 °F /  -6.3 °C 11.5 °F /  -11.4 °C 1014.8 in /  34361.1 hPa NNE 3.2 mph /  5.1 km/h 4.8 mph /  7.7 km/h 56 % 0.0 in /  0 mm
03:50 20.5 °F /  -6.4 °C 11.2 °F /  -11.6 °C 1014.8 in /  34361.1 hPa NE 4.8 mph /  7.7 km/h 6.4 mph /  10.3 km/h 55 % 0.0 in /  0 mm
04:00 21.3 °F /  -5.9 °C 11.3 °F /  -11.5 °C 1014.8 in /  34361.1 hPa NE 1.6 mph /  2.6 km/h 6.4 mph /  10.3 km/h 53 % 0.0 in /  0 mm
04:10 21.6 °F /  -5.8 °C 11.6 °F /  -11.3 °C 1014.8 in /  34361.1 hPa NE 1.6 mph /  2.6 km/h 3.2 mph /  5.1 km/h 53 % 0.0 in /  0 mm
04:20 21.8 °F /  -5.7 °C 11.5 °F /  -11.4 °C 1014.8 in /  34361.1 hPa NNE 3.2 mph /  5.1 km/h 3.2 mph /  5.1 km/h 52 % 0.0 in /  0 mm
04:30 21.2 °F /  -6 °C 10.3 °F /  -12.1 °C 1014.8 in /  34361.1 hPa ENE 3.2 mph /  5.1 km/h 6.4 mph /  10.3 km/h 50 % 0.0 in /  0 mm
04:40 22.5 °F /  -5.3 °C 11.8 °F /  -11.2 °C 1014.8 in /  34361.1 hPa ENE 1.6 mph /  2.6 km/h 4.8 mph /  7.7 km/h 51 % 0.0 in /  0 mm
04:50 22.4 °F /  -5.3 °C 11.4 °F /  -11.4 °C 1014.8 in /  34361.1 hPa Calm   6.4 mph /  10.3 km/h 50 % 0.0 in /  0 mm
05:00 22.9 °F /  -5.1 °C 11.6 °F /  -11.3 °C 1014.8 in /  34361.1 hPa ENE 3.2 mph /  5.1 km/h 4.8 mph /  7.7 km/h 49 % 0.0 in /  0 mm
05:10 22.8 °F /  -5.1 °C 11.5 °F /  -11.4 °C 1014.8 in /  34361.1 hPa ESE 1.6 mph /  2.6 km/h 4.8 mph /  7.7 km/h 49 % 0.0 in /  0 mm
05:20 22.8 °F /  -5.1 °C 11.5 °F /  -11.4 °C 1014.8 in /  34361.1 hPa NW 1.6 mph /  2.6 km/h 3.2 mph /  5.1 km/h 49 % 0.0 in /  0 mm
10:29 24.2 °F /  -4.3 °C 12.5 °F /  -10.8 °C 1014.8 in /  34361.1 hPa NE 3.7 mph /  6 km/h 5.0 mph /  8 km/h 48 % 0.0 in /  0 mm
10:30 24.2 °F /  -4.3 °C 12.5 °F /  -10.8 °C 1014.8 in /  34361.1 hPa NE 7.4 mph /  11.9 km/h 7.4 mph /  11.9 km/h 48 % 0.0 in /  0 mm
10:33 23.6 °F /  -4.7 °C 11.6 °F /  -11.3 °C 1014.8 in /  34361.1 hPa East 5.6 mph /  9 km/h 5.6 mph /  9 km/h 47 % 0.0 in /  0 mm
10:38 24.4 °F /  -4.2 °C 12.7 °F /  -10.7 °C 1014.8 in /  34361.1 hPa South 5.6 mph /  9 km/h 5.6 mph /  9 km/h 48 % 0.0 in /  0 mm
10:43 24.3 °F /  -4.3 °C 12.6 °F /  -10.8 °C 1014.8 in /  34361.1 hPa SW 9.3 mph /  15 km/h 9.3 mph /  15 km/h 48 % 0.0 in /  0 mm
10:44 24.1 °F /  -4.4 °C 12.4 °F /  -10.9 °C 1014.8 in /  34361.1 hPa WSW 7.4 mph /  11.9 km/h 7.4 mph /  11.9 km/h 48 % 0.0 in /  0 mm
10:49 24.1 °F /  -4.4 °C 12.4 °F /  -10.9 °C 1014.8 in /  34361.1 hPa WSW 5.3 mph /  8.5 km/h 5.3 mph /  8.5 km/h 48 % 0.0 in /  0 mm
10:54 24.2 °F /  -4.3 °C 12.2 °F /  -11 °C 1014.8 in /  34361.1 hPa SSW 3.7 mph /  6 km/h 3.7 mph /  6 km/h 47 % 0.0 in /  0 mm
10:59 24.3 °F /  -4.3 °C 12.6 °F /  -10.8 °C 1014.8 in /  34361.1 hPa West 1.9 mph /  3.1 km/h   48 % 0.0 in /  0 mm
11:04 24.4 °F /  -4.2 °C 12.7 °F /  -10.7 °C 1014.8 in /  34361.1 hPa West 7.4 mph /  11.9 km/h 7.4 mph /  11.9 km/h 48 % 0.0 in /  0 mm
11:09 24.2 °F /  -4.3 °C 12.5 °F /  -10.8 °C 1014.8 in /  34361.1 hPa ENE 2.3 mph /  3.7 km/h 2.3 mph /  3.7 km/h 48 % 0.0 in /  0 mm
11:14 24.3 °F /  -4.3 °C 12.6 °F /  -10.8 °C 1014.8 in /  34361.1 hPa SW 1.9 mph /  3.1 km/h 1.9 mph /  3.1 km/h 48 % 0.0 in /  0 mm
11:19 24.3 °F /  -4.3 °C 12.6 °F /  -10.8 °C 1014.8 in /  34361.1 hPa NNW 3.7 mph /  6 km/h 3.7 mph /  6 km/h 48 % 0.0 in /  0 mm
11:24 24.2 °F /  -4.3 °C 12.5 °F /  -10.8 °C 1014.8 in /  34361.1 hPa NE 3.9 mph /  6.3 km/h 3.9 mph /  6.3 km/h 48 % 0.0 in /  0 mm
11:29 24.2 °F /  -4.3 °C 12.2 °F /  -11 °C 1014.8 in /  34361.1 hPa SSW 3.7 mph /  6 km/h 3.7 mph /  6 km/h 47 % 0.0 in /  0 mm
11:34 24.6 °F /  -4.1 °C 13.2 °F /  -10.4 °C 1014.8 in /  34361.1 hPa SW 9.3 mph /  15 km/h 9.3 mph /  15 km/h 49 % 0.0 in /  0 mm
11:39 24.9 °F /  -3.9 °C 13.4 °F /  -10.3 °C 1014.8 in /  34361.1 hPa SSE 9.3 mph /  15 km/h 9.3 mph /  15 km/h 49 % 0.0 in /  0 mm
11:44 24.7 °F /  -4.1 °C 13.3 °F /  -10.4 °C 1014.8 in /  34361.1 hPa WSW 5.6 mph /  9 km/h 5.6 mph /  9 km/h 49 % 0.0 in /  0 mm
11:49 24.9 °F /  -3.9 °C 13.4 °F /  -10.3 °C 1014.8 in /  34361.1 hPa SSW 9.3 mph /  15 km/h 9.3 mph /  15 km/h 49 % 0.0 in /  0 mm
11:54 25.2 °F /  -3.8 °C 13.7 °F /  -10.2 °C 1014.8 in /  34361.1 hPa West 7.4 mph /  11.9 km/h 7.4 mph /  11.9 km/h 49 % 0.0 in /  0 mm
11:59 25.1 °F /  -3.8 °C 13.6 °F /  -10.2 °C 1014.8 in /  34361.1 hPa SW 9.3 mph /  15 km/h 9.3 mph /  15 km/h 49 % 0.0 in /  0 mm
12:04 25.4 °F /  -3.7 °C 13.6 °F /  -10.2 °C 1014.8 in /  34361.1 hPa South 10.0 mph /  16.1 km/h 10.0 mph /  16.1 km/h 48 % 0.0 in /  0 mm
12:09 25.1 °F /  -3.8 °C 13.3 °F /  -10.4 °C 1014.8 in /  34361.1 hPa SSW 9.3 mph /  15 km/h 9.3 mph /  15 km/h 48 % 0.0 in /  0 mm
12:14 25.2 °F /  -3.8 °C 13.7 °F /  -10.2 °C 1014.8 in /  34361.1 hPa WSW 7.4 mph /  11.9 km/h 7.4 mph /  11.9 km/h 49 % 0.0 in /  0 mm
12:19 25.2 °F /  -3.8 °C 13.4 °F /  -10.3 °C 1014.8 in /  34361.1 hPa West 7.4 mph /  11.9 km/h 7.4 mph /  11.9 km/h 48 % 0.0 in /  0 mm
12:24 26.0 °F /  -3.3 °C 14.1 °F /  -9.9 °C 1014.8 in /  34361.1 hPa WNW 9.3 mph /  15 km/h 9.3 mph /  15 km/h 48 % 0.0 in /  0 mm
12:29 26.5 °F /  -3.1 °C 14.6 °F /  -9.7 °C 1014.8 in /  34361.1 hPa SW 7.4 mph /  11.9 km/h 7.4 mph /  11.9 km/h 48 % 0.0 in /  0 mm
12:34 26.3 °F /  -3.2 °C 14.4 °F /  -9.8 °C 1014.8 in /  34361.1 hPa WSW 9.3 mph /  15 km/h 9.3 mph /  15 km/h 48 % 0.0 in /  0 mm
12:39 26.9 °F /  -2.8 °C 14.9 °F /  -9.5 °C 1014.8 in /  34361.1 hPa SSW 9.3 mph /  15 km/h 9.3 mph /  15 km/h 48 % 0.0 in /  0 mm
12:44 26.9 °F /  -2.8 °C 14.6 °F /  -9.7 °C 1014.8 in /  34361.1 hPa SSW 9.3 mph /  15 km/h 9.3 mph /  15 km/h 47 % 0.0 in /  0 mm
12:49 27.4 °F /  -2.6 °C 15.1 °F /  -9.4 °C 1013.8 in /  34327.3 hPa West 8.7 mph /  14 km/h 8.7 mph /  14 km/h 47 % 0.0 in /  0 mm
12:54 27.1 °F /  -2.7 °C 14.5 °F /  -9.7 °C 1013.8 in /  34327.3 hPa SW 9.3 mph /  15 km/h 9.3 mph /  15 km/h 46 % 0.0 in /  0 mm
12:59 26.9 °F /  -2.8 °C 14.6 °F /  -9.7 °C 1013.8 in /  34327.3 hPa SSW 7.4 mph /  11.9 km/h 7.4 mph /  11.9 km/h 47 % 0.0 in /  0 mm
13:04 26.6 °F /  -3 °C 14.7 °F /  -9.6 °C 1013.8 in /  34327.3 hPa WSW 11.9 mph /  19.2 km/h 11.9 mph /  19.2 km/h 48 % 0.0 in /  0 mm
13:09 26.4 °F /  -3.1 °C 14.5 °F /  -9.7 °C 1013.8 in /  34327.3 hPa WSW 10.3 mph /  16.6 km/h 10.3 mph /  16.6 km/h 48 % 0.0 in /  0 mm
13:14 26.1 °F /  -3.3 °C 14.2 °F /  -9.9 °C 1013.8 in /  34327.3 hPa SW 11.1 mph /  17.9 km/h 11.1 mph /  17.9 km/h 48 % 0.0 in /  0 mm
13:19 26.0 °F /  -3.3 °C 14.1 °F /  -9.9 °C 1013.8 in /  34327.3 hPa SSW 5.6 mph /  9 km/h 6.1 mph /  9.8 km/h 48 % 0.0 in /  0 mm
13:24 26.0 °F /  -3.3 °C 14.1 °F /  -9.9 °C 1013.8 in /  34327.3 hPa WSW 6.1 mph /  9.8 km/h 6.1 mph /  9.8 km/h 48 % 0.0 in /  0 mm
13:29 25.9 °F /  -3.4 °C 14.4 °F /  -9.8 °C 1013.8 in /  34327.3 hPa SW 9.3 mph /  15 km/h 9.3 mph /  15 km/h 49 % 0.0 in /  0 mm
13:34 26.1 °F /  -3.3 °C 14.6 °F /  -9.7 °C 1013.8 in /  34327.3 hPa SW 5.8 mph /  9.3 km/h 5.8 mph /  9.3 km/h 49 % 0.0 in /  0 mm
13:39 26.4 °F /  -3.1 °C 14.8 °F /  -9.6 °C 1013.8 in /  34327.3 hPa SSW 5.6 mph /  9 km/h 5.6 mph /  9 km/h 49 % 0.0 in /  0 mm
13:44 26.2 °F /  -3.2 °C 14.7 °F /  -9.6 °C 1013.8 in /  34327.3 hPa SSW 14.0 mph /  22.5 km/h 14.0 mph /  22.5 km/h 49 % 0.0 in /  0 mm
13:49 27.1 °F /  -2.7 °C 15.2 °F /  -9.3 °C 1013.8 in /  34327.3 hPa SW 11.1 mph /  17.9 km/h 11.1 mph /  17.9 km/h 48 % 0.0 in /  0 mm
13:54 26.8 °F /  -2.9 °C 15.2 °F /  -9.3 °C 1013.8 in /  34327.3 hPa WSW 12.2 mph /  19.6 km/h 12.2 mph /  19.6 km/h 49 % 0.0 in /  0 mm
13:59 26.9 °F /  -2.8 °C 15.3 °F /  -9.3 °C 1013.8 in /  34327.3 hPa WSW 14.8 mph /  23.8 km/h 14.8 mph /  23.8 km/h 49 % 0.0 in /  0 mm
14:04 26.6 °F /  -3 °C 15.0 °F /  -9.4 °C 1014.8 in /  34361.1 hPa SW 14.8 mph /  23.8 km/h 14.8 mph /  23.8 km/h 49 % 0.0 in /  0 mm
14:09 26.8 °F /  -2.9 °C 15.2 °F /  -9.3 °C 1014.8 in /  34361.1 hPa SW 14.5 mph /  23.3 km/h 14.5 mph /  23.3 km/h 49 % 0.0 in /  0 mm
14:14 26.5 °F /  -3.1 °C 14.9 °F /  -9.5 °C 1014.8 in /  34361.1 hPa WSW 9.7 mph /  15.6 km/h 9.7 mph /  15.6 km/h 49 % 0.0 in /  0 mm
14:19 26.8 °F /  -2.9 °C 15.2 °F /  -9.3 °C 1013.8 in /  34327.3 hPa SSW 9.3 mph /  15 km/h 9.3 mph /  15 km/h 49 % 0.0 in /  0 mm
14:24 26.8 °F /  -2.9 °C 15.2 °F /  -9.3 °C 1013.8 in /  34327.3 hPa WNW 14.8 mph /  23.8 km/h 14.8 mph /  23.8 km/h 49 % 0.0 in /  0 mm
14:29 26.8 °F /  -2.9 °C 15.2 °F /  -9.3 °C 1013.8 in /  34327.3 hPa SSE 11.1 mph /  17.9 km/h 11.1 mph /  17.9 km/h 49 % 0.0 in /  0 mm
14:34 27.0 °F /  -2.8 °C 15.1 °F /  -9.4 °C 1013.8 in /  34327.3 hPa SW 4.2 mph /  6.8 km/h 4.2 mph /  6.8 km/h 48 % 0.0 in /  0 mm
14:39 27.0 °F /  -2.8 °C 15.1 °F /  -9.4 °C 1013.8 in /  34327.3 hPa WSW 3.7 mph /  6 km/h 3.7 mph /  6 km/h 48 % 0.0 in /  0 mm
14:44 27.2 °F /  -2.7 °C 15.2 °F /  -9.3 °C 1013.8 in /  34327.3 hPa SSW 9.3 mph /  15 km/h 9.3 mph /  15 km/h 48 % 0.0 in /  0 mm
14:49 27.5 °F /  -2.5 °C 15.8 °F /  -9 °C 1013.8 in /  34327.3 hPa SW 7.4 mph /  11.9 km/h 7.4 mph /  11.9 km/h 49 % 0.0 in /  0 mm
14:54 27.4 °F /  -2.6 °C 15.4 °F /  -9.2 °C 1013.8 in /  34327.3 hPa West 7.4 mph /  11.9 km/h 7.4 mph /  11.9 km/h 48 % 0.0 in /  0 mm
14:59 27.2 °F /  -2.7 °C 15.2 °F /  -9.3 °C 1013.8 in /  34327.3 hPa SW 12.2 mph /  19.6 km/h 12.2 mph /  19.6 km/h 48 % 0.0 in /  0 mm
15:04 27.4 °F /  -2.6 °C 15.4 °F /  -9.2 °C 1013.8 in /  34327.3 hPa SSE 5.6 mph /  9 km/h 5.6 mph /  9 km/h 48 % 0.0 in /  0 mm
15:09 26.8 °F /  -2.9 °C 15.2 °F /  -9.3 °C 1013.8 in /  34327.3 hPa SW 13.0 mph /  20.9 km/h 13.0 mph /  20.9 km/h 49 % 0.0 in /  0 mm
15:14 26.6 °F /  -3 °C 15.0 °F /  -9.4 °C 1013.8 in /  34327.3 hPa SSW 9.3 mph /  15 km/h 9.3 mph /  15 km/h 49 % 0.0 in /  0 mm
15:19 26.6 °F /  -3 °C 15.0 °F /  -9.4 °C 1013.8 in /  34327.3 hPa SW 13.0 mph /  20.9 km/h 13.0 mph /  20.9 km/h 49 % 0.0 in /  0 mm
15:24 26.6 °F /  -3 °C 15.0 °F /  -9.4 °C 1013.8 in /  34327.3 hPa SW 11.1 mph /  17.9 km/h 11.1 mph /  17.9 km/h 49 % 0.0 in /  0 mm
15:29 26.9 °F /  -2.8 °C 15.3 °F /  -9.3 °C 1013.8 in /  34327.3 hPa West 11.1 mph /  17.9 km/h 11.1 mph /  17.9 km/h 49 % 0.0 in /  0 mm
15:34 26.7 °F /  -2.9 °C 15.1 °F /  -9.4 °C 1014.8 in /  34361.1 hPa SW 13.0 mph /  20.9 km/h 13.0 mph /  20.9 km/h 49 % 0.0 in /  0 mm
15:39 27.3 °F /  -2.6 °C 15.3 °F /  -9.3 °C 1014.8 in /  34361.1 hPa South 11.1 mph /  17.9 km/h 11.1 mph /  17.9 km/h 48 % 0.0 in /  0 mm
15:44 27.7 °F /  -2.4 °C 15.7 °F /  -9.1 °C 1014.8 in /  34361.1 hPa WSW 13.0 mph /  20.9 km/h 13.0 mph /  20.9 km/h 48 % 0.0 in /  0 mm
15:49 27.3 °F /  -2.6 °C 15.3 °F /  -9.3 °C 1013.8 in /  34327.3 hPa SW 14.0 mph /  22.5 km/h 14.0 mph /  22.5 km/h 48 % 0.0 in /  0 mm
15:54 27.3 °F /  -2.6 °C 15.3 °F /  -9.3 °C 1013.8 in /  34327.3 hPa NNE 10.3 mph /  16.6 km/h 10.3 mph /  16.6 km/h 48 % 0.0 in /  0 mm
15:59 27.4 °F /  -2.6 °C 15.4 °F /  -9.2 °C 1013.8 in /  34327.3 hPa SW 5.6 mph /  9 km/h 5.6 mph /  9 km/h 48 % 0.0 in /  0 mm
16:04 27.4 °F /  -2.6 °C 15.4 °F /  -9.2 °C 1014.8 in /  34361.1 hPa SSW 13.0 mph /  20.9 km/h 13.0 mph /  20.9 km/h 48 % 0.0 in /  0 mm
16:09 27.5 °F /  -2.5 °C 15.2 °F /  -9.3 °C 1014.8 in /  34361.1 hPa SW 7.4 mph /  11.9 km/h 7.4 mph /  11.9 km/h 47 % 0.0 in /  0 mm
16:14 26.9 °F /  -2.8 °C 15.3 °F /  -9.3 °C 1014.8 in /  34361.1 hPa SSW 9.3 mph /  15 km/h 9.3 mph /  15 km/h 49 % 0.0 in /  0 mm
16:19 27.2 °F /  -2.7 °C 15.2 °F /  -9.3 °C 1013.8 in /  34327.3 hPa WSW 6.1 mph /  9.8 km/h 6.1 mph /  9.8 km/h 48 % 0.0 in /  0 mm
16:24 27.3 °F /  -2.6 °C 15.3 °F /  -9.3 °C 1013.8 in /  34327.3 hPa SSE 4.7 mph /  7.6 km/h 4.7 mph /  7.6 km/h 48 % 0.0 in /  0 mm
16:29 27.1 °F /  -2.7 °C 15.2 °F /  -9.3 °C 1013.8 in /  34327.3 hPa West 5.6 mph /  9 km/h 5.6 mph /  9 km/h 48 % 0.0 in /  0 mm
16:34 27.0 °F /  -2.8 °C 15.1 °F /  -9.4 °C 1013.8 in /  34327.3 hPa SW 9.3 mph /  15 km/h 9.3 mph /  15 km/h 48 % 0.0 in /  0 mm
16:39 26.5 °F /  -3.1 °C 14.9 °F /  -9.5 °C 1013.8 in /  34327.3 hPa SW 11.1 mph /  17.9 km/h 11.1 mph /  17.9 km/h 49 % 0.0 in /  0 mm
16:44 26.7 °F /  -2.9 °C 15.1 °F /  -9.4 °C 1013.8 in /  34327.3 hPa SSE 7.4 mph /  11.9 km/h 7.4 mph /  11.9 km/h 49 % 0.0 in /  0 mm
16:49 25.9 °F /  -3.4 °C 14.4 °F /  -9.8 °C 1013.8 in /  34327.3 hPa SSW 7.4 mph /  11.9 km/h 7.4 mph /  11.9 km/h 49 % 0.0 in /  0 mm
16:54 26.0 °F /  -3.3 °C 14.4 °F /  -9.8 °C 1013.8 in /  34327.3 hPa SSE 5.6 mph /  9 km/h 5.6 mph /  9 km/h 49 % 0.0 in /  0 mm
16:59 25.5 °F /  -3.6 °C 14.3 °F /  -9.8 °C 1013.8 in /  34327.3 hPa ESE 9.3 mph /  15 km/h 9.3 mph /  15 km/h 50 % 0.0 in /  0 mm
17:04 25.4 °F /  -3.7 °C 14.2 °F /  -9.9 °C 1013.8 in /  34327.3 hPa SSE 6.4 mph /  10.3 km/h 6.4 mph /  10.3 km/h 50 % 0.0 in /  0 mm
17:09 24.9 °F /  -3.9 °C 14.1 °F /  -9.9 °C 1013.8 in /  34327.3 hPa South 13.0 mph /  20.9 km/h 13.0 mph /  20.9 km/h 51 % 0.0 in /  0 mm
17:14 24.7 °F /  -4.1 °C 13.9 °F /  -10.1 °C 1013.8 in /  34327.3 hPa SSW 13.0 mph /  20.9 km/h 13.0 mph /  20.9 km/h 51 % 0.0 in /  0 mm
17:19 24.6 °F /  -4.1 °C 14.1 °F /  -9.9 °C 1013.8 in /  34327.3 hPa ESE 5.6 mph /  9 km/h 5.6 mph /  9 km/h 52 % 0.0 in /  0 mm
17:24 24.6 °F /  -4.1 °C 14.1 °F /  -9.9 °C 1013.8 in /  34327.3 hPa SSE 7.4 mph /  11.9 km/h 7.4 mph /  11.9 km/h 52 % 0.0 in /  0 mm
17:29 24.4 °F /  -4.2 °C 13.9 °F /  -10.1 °C 1013.8 in /  34327.3 hPa ESE 3.7 mph /  6 km/h 3.7 mph /  6 km/h 52 % 0.0 in /  0 mm
17:34 24.2 °F /  -4.3 °C 13.7 °F /  -10.2 °C 1014.8 in /  34361.1 hPa ESE 3.7 mph /  6 km/h 3.7 mph /  6 km/h 52 % 0.0 in /  0 mm
17:39 23.9 °F /  -4.5 °C 13.4 °F /  -10.3 °C 1014.8 in /  34361.1 hPa ESE 11.1 mph /  17.9 km/h 11.1 mph /  17.9 km/h 52 % 0.0 in /  0 mm
17:44 23.8 °F /  -4.6 °C 13.3 °F /  -10.4 °C 1014.8 in /  34361.1 hPa ESE 9.3 mph /  15 km/h 9.3 mph /  15 km/h 52 % 0.0 in /  0 mm
17:49 23.7 °F /  -4.6 °C 13.6 °F /  -10.2 °C 1014.8 in /  34361.1 hPa North 9.3 mph /  15 km/h 9.3 mph /  15 km/h 53 % 0.0 in /  0 mm
17:54 23.7 °F /  -4.6 °C 13.6 °F /  -10.2 °C 1014.8 in /  34361.1 hPa ENE 9.3 mph /  15 km/h 9.3 mph /  15 km/h 53 % 0.0 in /  0 mm
17:59 23.5 °F /  -4.7 °C 13.4 °F /  -10.3 °C 1014.8 in /  34361.1 hPa NE 11.1 mph /  17.9 km/h 11.1 mph /  17.9 km/h 53 % 0.0 in /  0 mm
18:04 23.4 °F /  -4.8 °C 13.3 °F /  -10.4 °C 1014.8 in /  34361.1 hPa North 14.8 mph /  23.8 km/h 14.8 mph /  23.8 km/h 53 % 0.0 in /  0 mm
18:09 23.1 °F /  -4.9 °C 13.6 °F /  -10.2 °C 1014.8 in /  34361.1 hPa ESE 13.0 mph /  20.9 km/h 13.0 mph /  20.9 km/h 55 % 0.0 in /  0 mm
18:14 22.6 °F /  -5.2 °C 13.7 °F /  -10.2 °C 1014.8 in /  34361.1 hPa East 14.8 mph /  23.8 km/h 14.8 mph /  23.8 km/h 57 % 0.0 in /  0 mm
18:19 22.2 °F /  -5.4 °C 13.6 °F /  -10.2 °C 1014.8 in /  34361.1 hPa East 11.1 mph /  17.9 km/h 11.1 mph /  17.9 km/h 58 % 0.0 in /  0 mm
18:24 22.1 °F /  -5.5 °C 13.7 °F /  -10.2 °C 1014.8 in /  34361.1 hPa ESE 13.7 mph /  22 km/h 13.7 mph /  22 km/h 59 % 0.0 in /  0 mm
18:29 22.1 °F /  -5.5 °C 13.9 °F /  -10.1 °C 1014.8 in /  34361.1 hPa SE 10.0 mph /  16.1 km/h 10.0 mph /  16.1 km/h 60 % 0.0 in /  0 mm
18:34 21.9 °F /  -5.6 °C 14.1 °F /  -9.9 °C 1013.8 in /  34327.3 hPa ESE 9.3 mph /  15 km/h 9.3 mph /  15 km/h 61 % 0.0 in /  0 mm
18:35 21.9 °F /  -5.6 °C 14.1 °F /  -9.9 °C 1013.8 in /  34327.3 hPa SE 7.6 mph /  12.2 km/h 7.6 mph /  12.2 km/h 61 % 0.0 in /  0 mm
18:40 22.0 °F /  -5.6 °C 13.6 °F /  -10.2 °C 1013.8 in /  34327.3 hPa ESE 14.8 mph /  23.8 km/h 14.8 mph /  23.8 km/h 59 % 0.0 in /  0 mm
18:45 22.0 °F /  -5.6 °C 13.6 °F /  -10.2 °C 1014.8 in /  34361.1 hPa ENE 13.7 mph /  22 km/h 13.7 mph /  22 km/h 59 % 0.0 in /  0 mm
18:50 22.0 °F /  -5.6 °C 13.3 °F /  -10.4 °C 1014.8 in /  34361.1 hPa ESE 14.8 mph /  23.8 km/h 14.8 mph /  23.8 km/h 58 % 0.0 in /  0 mm
18:55 21.7 °F /  -5.7 °C 13.8 °F /  -10.1 °C 1014.8 in /  34361.1 hPa East 7.4 mph /  11.9 km/h 7.4 mph /  11.9 km/h 61 % 0.0 in /  0 mm
19:00 21.2 °F /  -6 °C 13.9 °F /  -10.1 °C 1014.8 in /  34361.1 hPa WNW 7.4 mph /  11.9 km/h 7.4 mph /  11.9 km/h 63 % 0.0 in /  0 mm
19:05 20.3 °F /  -6.5 °C 13.7 °F /  -10.2 °C 1014.8 in /  34361.1 hPa SW 9.3 mph /  15 km/h 9.3 mph /  15 km/h 66 % 1.0 in /  25.4 mm
19:10 20.0 °F /  -6.7 °C 13.9 °F /  -10.1 °C 1014.8 in /  34361.1 hPa WSW 7.4 mph /  11.9 km/h 7.4 mph /  11.9 km/h 68 % 1.0 in /  25.4 mm
19:15 19.7 °F /  -6.8 °C 14.5 °F /  -9.7 °C 1015.8 in /  34395 hPa North 3.7 mph /  6 km/h 3.7 mph /  6 km/h 72 % 1.0 in /  25.4 mm
19:20 19.6 °F /  -6.9 °C 14.6 °F /  -9.7 °C 1015.8 in /  34395 hPa West 3.7 mph /  6 km/h 3.7 mph /  6 km/h 73 % 1.0 in /  25.4 mm
19:25 19.6 °F /  -6.9 °C 14.8 °F /  -9.6 °C 1015.8 in /  34395 hPa NNW 3.7 mph /  6 km/h 3.7 mph /  6 km/h 74 % 1.0 in /  25.4 mm
19:30 19.3 °F /  -7.1 °C 14.6 °F /  -9.7 °C 1015.8 in /  34395 hPa NW 3.7 mph /  6 km/h 3.7 mph /  6 km/h 74 % 1.0 in /  25.4 mm
19:35 19.2 °F /  -7.1 °C 14.7 °F /  -9.6 °C 1015.8 in /  34395 hPa WSW 1.9 mph /  3.1 km/h 2.6 mph /  4.2 km/h 75 % 1.0 in /  25.4 mm
19:40 19.0 °F /  -7.2 °C 14.4 °F /  -9.8 °C 1015.8 in /  34395 hPa NW 3.9 mph /  6.3 km/h 3.9 mph /  6.3 km/h 75 % 1.0 in /  25.4 mm
19:45 18.9 °F /  -7.3 °C 14.8 °F /  -9.6 °C 1015.8 in /  34395 hPa WNW 5.6 mph /  9 km/h 5.6 mph /  9 km/h 77 % 1.0 in /  25.4 mm
19:50 18.8 °F /  -7.3 °C 14.9 °F /  -9.5 °C 1015.8 in /  34395 hPa West 1.9 mph /  3.1 km/h 1.9 mph /  3.1 km/h 78 % 1.0 in /  25.4 mm
19:55 18.7 °F /  -7.4 °C 14.8 °F /  -9.6 °C 1015.8 in /  34395 hPa North 5.6 mph /  9 km/h 5.6 mph /  9 km/h 78 % 1.0 in /  25.4 mm
20:00 18.7 °F /  -7.4 °C 15.0 °F /  -9.4 °C 1015.8 in /  34395 hPa NNW 1.9 mph /  3.1 km/h   79 % 1.0 in /  25.4 mm
20:05 18.7 °F /  -7.4 °C 15.0 °F /  -9.4 °C 1015.8 in /  34395 hPa ESE 2.3 mph /  3.7 km/h 2.3 mph /  3.7 km/h 79 % 0.0 in /  0 mm
20:10 18.7 °F /  -7.4 °C 15.0 °F /  -9.4 °C 1015.8 in /  34395 hPa WNW 1.9 mph /  3.1 km/h 1.9 mph /  3.1 km/h 79 % 0.0 in /  0 mm
20:15 18.6 °F /  -7.4 °C 14.9 °F /  -9.5 °C 1015.8 in /  34395 hPa West 1.9 mph /  3.1 km/h 1.9 mph /  3.1 km/h 79 % 0.0 in /  0 mm
20:20 18.6 °F /  -7.4 °C 15.3 °F /  -9.3 °C 1015.8 in /  34395 hPa Calm     81 % 0.0 in /  0 mm
20:25 18.5 °F /  -7.5 °C 15.2 °F /  -9.3 °C 1015.8 in /  34395 hPa Calm     81 % 0.0 in /  0 mm
20:26 18.5 °F /  -7.5 °C 15.2 °F /  -9.3 °C 1015.8 in /  34395 hPa Calm     81 % 0.0 in /  0 mm
20:30 16.4 °F /  -8.7 °C 14.6 °F /  -9.7 °C 1017.8 in /  34462.7 hPa Calm     89 % 0.0 in /  0 mm
20:31 18.5 °F /  -7.5 °C 15.2 °F /  -9.3 °C 1015.8 in /  34395 hPa Calm     81 % 0.0 in /  0 mm
20:36 18.4 °F /  -7.6 °C 15.1 °F /  -9.4 °C 1015.8 in /  34395 hPa Calm     81 % 0.0 in /  0 mm
20:40 16.5 °F /  -8.6 °C 14.8 °F /  -9.6 °C 1017.8 in /  34462.7 hPa NE 3.2 mph /  5.1 km/h 4.8 mph /  7.7 km/h 90 % 0.0 in /  0 mm
20:41 18.2 °F /  -7.7 °C 14.9 °F /  -9.5 °C 1015.8 in /  34395 hPa SW 2.6 mph /  4.2 km/h   81 % 0.0 in /  0 mm
20:46 18.2 °F /  -7.7 °C 14.9 °F /  -9.5 °C 1015.8 in /  34395 hPa WSW 1.9 mph /  3.1 km/h   81 % 0.0 in /  0 mm
20:50 16.4 °F /  -8.7 °C 14.6 °F /  -9.7 °C 1017.8 in /  34462.7 hPa East 3.2 mph /  5.1 km/h 4.8 mph /  7.7 km/h 89 % 0.0 in /  0 mm
20:51 18.3 °F /  -7.6 °C 15.0 °F /  -9.4 °C 1015.8 in /  34395 hPa WSW 3.9 mph /  6.3 km/h   81 % 0.0 in /  0 mm
20:56 18.4 °F /  -7.6 °C 15.1 °F /  -9.4 °C 1015.8 in /  34395 hPa SW 1.9 mph /  3.1 km/h   81 % 0.0 in /  0 mm
21:00 16.3 °F /  -8.7 °C 14.3 °F /  -9.8 °C 1017.8 in /  34462.7 hPa SW 3.2 mph /  5.1 km/h 4.8 mph /  7.7 km/h 88 % 0.0 in /  0 mm
21:01 18.5 °F /  -7.5 °C 15.2 °F /  -9.3 °C 1016.8 in /  34428.8 hPa West 3.7 mph /  6 km/h 3.7 mph /  6 km/h 81 % 0.0 in /  0 mm
21:06 18.5 °F /  -7.5 °C 15.6 °F /  -9.1 °C 1016.8 in /  34428.8 hPa WSW 1.9 mph /  3.1 km/h   83 % 0.0 in /  0 mm
21:10 16.3 °F /  -8.7 °C 14.5 °F /  -9.7 °C 1017.8 in /  34462.7 hPa Calm   3.2 mph /  5.1 km/h 89 % 0.0 in /  0 mm
21:11 18.4 °F /  -7.6 °C 15.3 °F /  -9.3 °C 1016.8 in /  34428.8 hPa SW 3.7 mph /  6 km/h 3.7 mph /  6 km/h 82 % 0.0 in /  0 mm
21:16 18.5 °F /  -7.5 °C 15.6 °F /  -9.1 °C 1015.8 in /  34395 hPa NE 5.0 mph /  8 km/h 5.0 mph /  8 km/h 83 % 0.0 in /  0 mm
21:20 16.2 °F /  -8.8 °C 14.2 °F /  -9.9 °C 1017.8 in /  34462.7 hPa West 3.2 mph /  5.1 km/h 3.2 mph /  5.1 km/h 88 % 0.0 in /  0 mm
21:21 18.4 °F /  -7.6 °C 15.4 °F /  -9.2 °C 1015.8 in /  34395 hPa WNW 3.7 mph /  6 km/h 3.7 mph /  6 km/h 83 % 0.0 in /  0 mm
21:26 18.3 °F /  -7.6 °C 15.4 °F /  -9.2 °C 1015.8 in /  34395 hPa ENE 3.9 mph /  6.3 km/h 3.9 mph /  6.3 km/h 83 % 0.0 in /  0 mm
21:30 16.1 °F /  -8.8 °C 14.1 °F /  -9.9 °C 1017.8 in /  34462.7 hPa WSW 1.6 mph /  2.6 km/h 4.8 mph /  7.7 km/h 88 % 0.0 in /  0 mm
21:31 18.0 °F /  -7.8 °C 14.9 °F /  -9.5 °C 1016.8 in /  34428.8 hPa NNE 3.7 mph /  6 km/h 3.7 mph /  6 km/h 82 % 0.0 in /  0 mm
21:36 18.1 °F /  -7.7 °C 15.2 °F /  -9.3 °C 1016.8 in /  34428.8 hPa West 2.6 mph /  4.2 km/h 2.6 mph /  4.2 km/h 83 % 0.0 in /  0 mm
21:40 16.0 °F /  -8.9 °C 14.0 °F /  -10 °C 1018.8 in /  34496.6 hPa WSW 1.6 mph /  2.6 km/h 4.8 mph /  7.7 km/h 88 % 0.0 in /  0 mm
21:41 18.2 °F /  -7.7 °C 15.3 °F /  -9.3 °C 1016.8 in /  34428.8 hPa SW 3.7 mph /  6 km/h 3.7 mph /  6 km/h 83 % 0.0 in /  0 mm
21:46 17.9 °F /  -7.8 °C 14.9 °F /  -9.5 °C 1017.8 in /  34462.7 hPa SW 3.7 mph /  6 km/h 3.7 mph /  6 km/h 83 % 0.0 in /  0 mm
21:50 16.0 °F /  -8.9 °C 14.2 °F /  -9.9 °C 1018.8 in /  34496.6 hPa Calm   3.2 mph /  5.1 km/h 89 % 0.0 in /  0 mm
21:51 17.6 °F /  -8 °C 14.7 °F /  -9.6 °C 1017.8 in /  34462.7 hPa WSW 3.7 mph /  6 km/h 3.7 mph /  6 km/h 83 % 0.0 in /  0 mm
21:56 17.6 °F /  -8 °C 14.7 °F /  -9.6 °C 1017.8 in /  34462.7 hPa SW 3.7 mph /  6 km/h 3.7 mph /  6 km/h 83 % 0.0 in /  0 mm
22:00 15.8 °F /  -9 °C 13.8 °F /  -10.1 °C 1018.8 in /  34496.6 hPa SW 3.2 mph /  5.1 km/h 4.8 mph /  7.7 km/h 88 % 0.0 in /  0 mm
22:01 17.5 °F /  -8.1 °C 14.6 °F /  -9.7 °C 1017.8 in /  34462.7 hPa SW 3.7 mph /  6 km/h 3.7 mph /  6 km/h 83 % 0.0 in /  0 mm
22:06 17.3 °F /  -8.2 °C 14.4 °F /  -9.8 °C 1017.8 in /  34462.7 hPa WSW 3.7 mph /  6 km/h 3.7 mph /  6 km/h 83 % 0.0 in /  0 mm
22:10 15.6 °F /  -9.1 °C 13.4 °F /  -10.3 °C 1017.8 in /  34462.7 hPa WSW 3.2 mph /  5.1 km/h 6.4 mph /  10.3 km/h 87 % 0.0 in /  0 mm
22:11 17.2 °F /  -8.2 °C 14.3 °F /  -9.8 °C 1017.8 in /  34462.7 hPa WSW 1.9 mph /  3.1 km/h   83 % 0.0 in /  0 mm
22:16 17.0 °F /  -8.3 °C 13.9 °F /  -10.1 °C 1017.8 in /  34462.7 hPa SSW 3.7 mph /  6 km/h 3.7 mph /  6 km/h 82 % 0.0 in /  0 mm
22:20 15.4 °F /  -9.2 °C 13.1 °F /  -10.5 °C 1017.8 in /  34462.7 hPa WSW 4.8 mph /  7.7 km/h 6.4 mph /  10.3 km/h 86 % 0.0 in /  0 mm
22:21 16.9 °F /  -8.4 °C 14.2 °F /  -9.9 °C 1017.8 in /  34462.7 hPa WSW 3.7 mph /  6 km/h 3.7 mph /  6 km/h 84 % 0.0 in /  0 mm
22:26 16.8 °F /  -8.4 °C 14.1 °F /  -9.9 °C 1017.8 in /  34462.7 hPa Calm     84 % 0.0 in /  0 mm
22:30 15.3 °F /  -9.3 °C 12.9 °F /  -10.6 °C 1017.8 in /  34462.7 hPa West 1.6 mph /  2.6 km/h 3.2 mph /  5.1 km/h 86 % 0.0 in /  0 mm
22:31 16.7 °F /  -8.5 °C 13.8 °F /  -10.1 °C 1017.8 in /  34462.7 hPa SW 3.7 mph /  6 km/h 3.9 mph /  6.3 km/h 83 % 0.0 in /  0 mm
22:36 16.7 °F /  -8.5 °C 14.0 °F /  -10 °C 1017.8 in /  34462.7 hPa SW 3.7 mph /  6 km/h   84 % 0.0 in /  0 mm
22:40 15.3 °F /  -9.3 °C 13.2 °F /  -10.4 °C 1017.8 in /  34462.7 hPa West 1.6 mph /  2.6 km/h 4.8 mph /  7.7 km/h 87 % 0.0 in /  0 mm
22:41 16.6 °F /  -8.6 °C 13.7 °F /  -10.2 °C 1017.8 in /  34462.7 hPa SW 5.6 mph /  9 km/h 5.6 mph /  9 km/h 83 % 0.0 in /  0 mm
22:46 16.7 °F /  -8.5 °C 14.2 °F /  -9.9 °C 1018.8 in /  34496.6 hPa Calm     85 % 0.0 in /  0 mm
22:50 15.3 °F /  -9.3 °C 12.9 °F /  -10.6 °C 1017.8 in /  34462.7 hPa West 1.6 mph /  2.6 km/h 3.2 mph /  5.1 km/h 86 % 0.0 in /  0 mm
22:51 16.7 °F /  -8.5 °C 14.2 °F /  -9.9 °C 1018.8 in /  34496.6 hPa Calm     85 % 0.0 in /  0 mm
22:56 16.5 °F /  -8.6 °C 13.9 °F /  -10.1 °C 1018.8 in /  34496.6 hPa Calm     85 % 0.0 in /  0 mm
23:00 15.3 °F /  -9.3 °C 12.9 °F /  -10.6 °C 1017.8 in /  34462.7 hPa WSW 3.2 mph /  5.1 km/h 4.8 mph /  7.7 km/h 86 % 0.0 in /  0 mm
23:01 16.5 °F /  -8.6 °C 13.9 °F /  -10.1 °C 1018.8 in /  34496.6 hPa WSW 2.3 mph /  3.7 km/h 2.3 mph /  3.7 km/h 85 % 0.0 in /  0 mm
23:06 16.5 °F /  -8.6 °C 13.9 °F /  -10.1 °C 1018.8 in /  34496.6 hPa SW 3.7 mph /  6 km/h 3.7 mph /  6 km/h 85 % 0.0 in /  0 mm
23:10 15.2 °F /  -9.3 °C 12.7 °F /  -10.7 °C 1017.8 in /  34462.7 hPa Calm   4.8 mph /  7.7 km/h 85 % 0.0 in /  0 mm
23:11 16.5 °F /  -8.6 °C 13.9 °F /  -10.1 °C 1018.8 in /  34496.6 hPa Calm     85 % 0.0 in /  0 mm
23:16 16.5 °F /  -8.6 °C 14.2 °F /  -9.9 °C 1017.8 in /  34462.7 hPa WNW 3.7 mph /  6 km/h 3.7 mph /  6 km/h 86 % 0.0 in /  0 mm
23:20 15.3 °F /  -9.3 °C 12.8 °F /  -10.7 °C 1017.8 in /  34462.7 hPa Calm   1.6 mph /  2.6 km/h 85 % 0.0 in /  0 mm
23:21 16.5 °F /  -8.6 °C 14.2 °F /  -9.9 °C 1017.8 in /  34462.7 hPa SW 1.4 mph /  2.3 km/h 1.4 mph /  2.3 km/h 86 % 0.0 in /  0 mm
23:26 16.5 °F /  -8.6 °C 14.2 °F /  -9.9 °C 1017.8 in /  34462.7 hPa WSW 1.9 mph /  3.1 km/h   86 % 7.1 in /  180.34 mm
23:30 15.2 °F /  -9.3 °C 12.7 °F /  -10.7 °C 1017.8 in /  34462.7 hPa SW 1.6 mph /  2.6 km/h 3.2 mph /  5.1 km/h 85 % 0.0 in /  0 mm
23:31 16.5 °F /  -8.6 °C 14.3 °F /  -9.8 °C 1017.8 in /  34462.7 hPa Calm     87 % 7.1 in /  180.34 mm
23:36 16.5 °F /  -8.6 °C 14.3 °F /  -9.8 °C 1017.8 in /  34462.7 hPa Calm     87 % 7.1 in /  180.34 mm
23:40 15.0 °F /  -9.4 °C 12.3 °F /  -10.9 °C 1017.8 in /  34462.7 hPa SW 4.8 mph /  7.7 km/h 4.8 mph /  7.7 km/h 84 % 0.0 in /  0 mm
23:41 16.4 °F /  -8.7 °C 14.2 °F /  -9.9 °C 1017.8 in /  34462.7 hPa WSW 1.9 mph /  3.1 km/h   87 % 7.1 in /  180.34 mm
23:46 16.4 °F /  -8.7 °C 14.2 °F /  -9.9 °C 1018.8 in /  34496.6 hPa Calm     87 % 7.1 in /  180.34 mm
23:50 15.0 °F /  -9.4 °C 12.3 °F /  -10.9 °C 1017.8 in /  34462.7 hPa WSW 1.6 mph /  2.6 km/h 3.2 mph /  5.1 km/h 84 % 0.0 in /  0 mm
23:51 16.4 °F /  -8.7 °C 14.2 °F /  -9.9 °C 1018.8 in /  34496.6 hPa Calm     87 % 7.1 in /  180.34 mm
23:56 16.3 °F /  -8.7 °C 14.1 °F /  -9.9 °C 1018.8 in /  34496.6 hPa NE 1.9 mph /  3.1 km/h 1.9 mph /  3.1 km/h 87 % 7.1 in /  180.34 mm
Meteo Sesrovires
Elogis d' Weather Underground - 2 mb

Guio original per  Jim McMurry - jmcmurry@mwt.net Adaptat per a la plantilla per  Wim van der Kuil - Leuven-Template.eu

Trobareu la nostra informacio del temps tambe a:

Weather Underground

AWEKAS